Scotrun, Pennsylvania
Current Conditions -  °F | °C
As of 5:53 PM on Friday 31 Oct 2014 (Local Time) from KMPO Reporting Station
Overcast Overcast  
Wind Chill: 40°   Ceiling: 4700
Heat Index: 44°   Visibility: 10mi
Dew Point: 32°   Wind: 8mph
Humidity: 63%   Direction: 120°ESE
Pressure: 29.86"   Gusts: NA
Location:  41.07°N, 75.32°W
Report Text: KMPO 312153Z AUTO 12007KT 10SM OVC047 07/00 A2986 RMK AO2 SLP129 T00670000
Loading
Personal Weather Stations






























Interactive Weather Map
Tropical Storm Tracking
New forecast layout! Learn more

10-Day Weather Forecast

Advertisements
Track Severe Weather on mobile